createdAt,value
2023-05-10T00:05:53.637Z,98091.09
2023-05-10T00:08:27.006Z,98085.06
2023-05-10T00:11:05.650Z,98081.66
2023-05-10T00:13:39.118Z,98086.03
2023-05-10T00:16:13.730Z,98061.47
2023-05-10T00:18:47.031Z,98074.19
2023-05-10T00:21:22.655Z,98075.16
2023-05-10T00:31:49.679Z,98064.75
2023-05-10T00:34:29.648Z,98064.88
2023-05-10T00:37:04.861Z,98066.16
2023-05-10T00:39:39.676Z,98059.78
2023-05-10T00:42:12.966Z,98060.78
2023-05-10T00:44:46.641Z,98059.38
2023-05-10T00:47:20.196Z,98053.31
2023-05-10T01:00:12.623Z,98049.66
2023-05-10T01:02:52.747Z,98050.50
2023-05-10T01:05:26.140Z,98046.25
2023-05-10T01:07:59.655Z,98046.25
2023-05-10T01:10:33.223Z,98040.88
2023-05-10T01:13:07.664Z,98033.84
2023-05-10T01:27:14.642Z,98019.13
2023-05-10T01:30:36.184Z,98022.78
2023-05-10T01:33:26.629Z,98013.19
2023-05-10T01:36:09.610Z,98012.34
2023-05-10T01:38:56.653Z,98010.66
2023-05-10T01:41:42.272Z,97997.41
2023-05-10T01:51:57.620Z,98006.44
2023-05-10T01:54:36.213Z,98010.09
2023-05-10T01:57:20.685Z,98008.69
2023-05-10T01:59:56.938Z,98015.19
2023-05-10T02:02:32.688Z,98010.09
2023-05-10T02:05:08.597Z,98010.25
2023-05-10T02:07:43.646Z,98005.84
2023-05-10T02:20:55.637Z,98003.88
2023-05-10T02:23:31.066Z,98002.19
2023-05-10T02:26:07.627Z,97999.06
2023-05-10T02:28:42.923Z,98004.69
2023-05-10T02:31:18.639Z,98009.78
2023-05-10T02:47:55.646Z,98003.03
2023-05-10T02:50:39.649Z,97997.94
2023-05-10T02:53:23.426Z,97999.06
2023-05-10T02:56:10.634Z,97997.34
2023-05-10T02:58:44.051Z,98007.34
2023-05-10T03:01:23.676Z,98007.50
2023-05-10T03:14:52.640Z,98023.88
2023-05-10T03:17:39.705Z,98027.78
2023-05-10T03:20:29.661Z,98024.44
2023-05-10T03:23:11.484Z,98031.75
2023-05-10T03:25:55.653Z,98029.22
2023-05-10T03:39:07.674Z,98033.13
2023-05-10T03:41:41.008Z,98028.06
2023-05-10T03:44:14.637Z,98039.63
2023-05-10T03:46:48.047Z,98029.19
2023-05-10T03:49:21.870Z,98021.16
2023-05-10T03:51:55.014Z,98022.94
2023-05-10T04:08:10.647Z,98028.56
2023-05-10T04:10:44.047Z,98016.97
2023-05-10T04:13:17.679Z,98032.09
2023-05-10T04:15:50.868Z,98026.72
2023-05-10T04:18:24.636Z,98040.97
2023-05-10T04:20:58.213Z,98033.94
2023-05-10T04:33:48.609Z,98027.13
2023-05-10T04:36:28.630Z,98022.59
2023-05-10T04:39:02.073Z,98028.78
2023-05-10T04:41:35.625Z,98021.75
2023-05-10T04:44:09.064Z,98034.16
2023-05-10T04:46:42.694Z,98022.59
2023-05-10T04:59:54.642Z,98032.66
2023-05-10T05:02:27.966Z,98028.03
2023-05-10T05:05:03.661Z,98031.28
2023-05-10T05:07:36.899Z,98025.53
2023-05-10T05:10:11.662Z,98024.97
2023-05-10T05:12:44.921Z,98025.97
2023-05-10T05:26:06.656Z,98030.41
2023-05-10T05:28:39.904Z,98030.84
2023-05-10T05:31:14.673Z,98020.66
2023-05-10T05:33:47.987Z,98027.31
2023-05-10T05:36:21.664Z,98023.34
2023-05-10T05:38:54.935Z,98018.44
2023-05-10T05:55:12.677Z,98011.78
2023-05-10T05:57:45.906Z,98012.09
2023-05-10T06:00:20.644Z,98016.03
2023-05-10T06:02:53.956Z,98015.47
2023-05-10T06:05:27.650Z,98022.22
2023-05-10T06:08:01.113Z,98025.63
2023-05-10T06:20:51.634Z,98012.41
2023-05-10T06:23:31.634Z,98009.97
2023-05-10T06:26:05.037Z,98018.75
2023-05-10T06:28:38.633Z,98009.41
2023-05-10T06:31:11.933Z,98013.91
2023-05-10T06:33:45.673Z,98009.63
2023-05-10T06:46:57.682Z,97992.03
2023-05-10T06:49:30.943Z,97992.09
2023-05-10T06:52:04.644Z,97988.53
2023-05-10T06:54:37.909Z,97997.38
2023-05-10T06:57:23.331Z,97986.84
2023-05-10T07:00:06.369Z,97977.31
2023-05-10T07:02:41.689Z,97988.47
2023-05-10T07:13:05.684Z,97980.59
2023-05-10T07:15:45.646Z,97983.38
2023-05-10T07:18:20.886Z,97983.75
2023-05-10T07:20:54.676Z,97982.44
2023-05-10T07:23:28.011Z,97980.13
2023-05-10T07:26:01.718Z,97981.50
2023-05-10T07:28:34.890Z,97982.88
2023-05-10T07:41:25.615Z,97980.88
2023-05-10T07:44:05.625Z,97989.63
2023-05-10T07:46:39.172Z,97983.88
2023-05-10T07:49:12.670Z,97983.19
2023-05-10T07:51:46.058Z,97985.50
2023-05-10T07:54:19.668Z,97982.13
2023-05-10T08:07:32.674Z,97979.97
2023-05-10T08:10:08.704Z,97976.59
2023-05-10T08:12:42.666Z,97979.59
2023-05-10T08:15:16.112Z,97985.66
2023-05-10T08:17:49.657Z,97975.91
2023-05-10T08:20:23.167Z,97989.34
2023-05-10T08:22:58.686Z,97989.19
2023-05-10T08:33:24.618Z,97999.66
2023-05-10T08:36:04.644Z,98001.75
2023-05-10T08:38:40.334Z,98000.31
2023-05-10T08:41:13.627Z,98008.59
2023-05-10T08:43:47.715Z,98011.34
2023-05-10T08:46:24.708Z,98022.03
2023-05-10T08:49:03.178Z,98021.75
2023-05-10T09:02:04.622Z,98018.13
2023-05-10T09:04:45.756Z,98025.41
2023-05-10T09:07:20.147Z,98018.25
2023-05-10T09:09:54.626Z,98019.94
2023-05-10T09:12:28.332Z,98019.13
2023-05-10T09:28:58.646Z,98024.44
2023-05-10T09:31:47.319Z,98026.63
2023-05-10T09:34:38.650Z,98018.88
2023-05-10T09:37:11.908Z,98019.06
2023-05-10T09:39:45.657Z,98019.22
2023-05-10T09:42:19.316Z,98019.47
2023-05-10T09:55:09.612Z,98016.59
2023-05-10T09:57:49.670Z,98022.84
2023-05-10T10:00:23.007Z,98022.00
2023-05-10T10:03:03.678Z,98020.97
2023-05-10T10:05:36.907Z,98024.00
2023-05-10T10:08:13.650Z,98019.59
2023-05-10T10:21:26.671Z,98019.91
2023-05-10T10:23:59.922Z,98024.94
2023-05-10T10:26:33.640Z,98017.31
2023-05-10T10:29:24.112Z,98019.16
2023-05-10T10:32:24.693Z,98012.03
2023-05-10T10:49:17.626Z,98016.59
2023-05-10T10:52:30.647Z,98024.31
2023-05-10T10:55:07.890Z,98004.84
2023-05-10T10:57:56.639Z,98013.25
2023-05-10T11:00:31.713Z,98004.72
2023-05-10T11:03:10.706Z,98001.09
2023-05-10T11:16:25.776Z,97999.16
2023-05-10T11:19:02.776Z,98006.94
2023-05-10T11:21:53.653Z,97997.25
2023-05-10T11:24:29.054Z,97998.19
2023-05-10T11:27:03.660Z,98010.81
2023-05-10T11:29:36.938Z,98008.44
2023-05-10T11:42:27.686Z,98004.72
2023-05-10T11:45:08.724Z,98003.28
2023-05-10T11:47:42.862Z,98001.06
2023-05-10T11:52:51.963Z,98006.09
2023-05-10T12:09:13.647Z,98011.09
2023-05-10T12:11:46.879Z,98012.78
2023-05-10T12:14:21.624Z,98016.13
2023-05-10T12:16:58.138Z,98017.44
2023-05-10T12:19:44.700Z,98030.06
2023-05-10T12:22:21.629Z,98018.44
2023-05-10T12:35:20.631Z,98010.97
2023-05-10T12:38:00.717Z,98023.34
2023-05-10T12:40:33.909Z,98020.88
2023-05-10T12:43:07.656Z,98024.63
2023-05-10T12:45:40.961Z,98017.59
2023-05-10T12:48:14.706Z,98020.78
2023-05-10T13:01:26.774Z,98021.97
2023-05-10T13:03:59.909Z,98024.94
2023-05-10T13:06:33.677Z,98022.69
2023-05-10T13:09:07.011Z,98021.69
2023-05-10T13:11:40.697Z,98020.91
2023-05-10T13:14:13.936Z,98023.44
2023-05-10T13:27:42.639Z,98014.16
2023-05-10T13:30:22.666Z,98019.19
2023-05-10T13:32:55.932Z,98021.91
2023-05-10T13:35:29.698Z,98019.19
2023-05-10T13:38:02.925Z,98021.84
2023-05-10T13:40:36.675Z,98013.25
2023-05-10T13:43:11.860Z,98015.75
2023-05-10T13:56:01.652Z,98012.09
2023-05-10T13:58:43.697Z,98016.25
2023-05-10T14:01:16.962Z,98019.13
2023-05-10T14:03:50.735Z,98013.91
2023-05-10T14:06:23.957Z,98014.94
2023-05-10T14:08:57.690Z,98020.00
2023-05-10T14:22:10.685Z,98012.97
2023-05-10T14:24:43.930Z,98018.97
2023-05-10T14:27:17.664Z,98011.56
2023-05-10T14:29:51.034Z,98004.19
2023-05-10T14:32:24.685Z,98002.91
2023-05-10T14:49:01.662Z,98011.84
2023-05-10T14:51:41.675Z,98016.41
2023-05-10T14:54:14.985Z,98017.19
2023-05-10T14:56:48.685Z,98010.84
2023-05-10T14:59:21.929Z,98020.84
2023-05-10T15:01:55.686Z,98021.06
2023-05-10T15:04:31.856Z,98019.00
2023-05-10T15:14:40.705Z,98027.09
2023-05-10T15:17:13.966Z,98022.16
2023-05-10T15:19:49.653Z,98026.34
2023-05-10T15:22:22.934Z,98027.38
2023-05-10T15:24:57.797Z,98026.34
2023-05-10T15:27:31.073Z,98022.22
2023-05-10T15:43:46.665Z,98037.91
2023-05-10T15:46:19.921Z,98035.84
2023-05-10T15:48:53.697Z,98040.06
2023-05-10T15:51:26.921Z,98048.88
2023-05-10T15:54:06.928Z,98042.41
2023-05-10T16:08:02.697Z,98044.19
2023-05-10T16:10:37.899Z,98047.94
2023-05-10T16:13:11.693Z,98053.38
2023-05-10T16:15:45.021Z,98053.19
2023-05-10T16:18:18.713Z,98053.00
2023-05-10T16:20:53.343Z,98048.22
2023-05-10T16:23:26.699Z,98052.63
2023-05-10T16:36:38.705Z,98063.63
2023-05-10T16:39:11.961Z,98064.00
2023-05-10T16:41:45.685Z,98068.81
2023-05-10T16:44:20.600Z,98070.88
2023-05-10T16:47:09.678Z,98067.97
2023-05-10T16:49:43.170Z,98076.31
2023-05-10T17:02:33.763Z,98087.06
2023-05-10T17:05:14.797Z,98089.53
2023-05-10T17:07:48.281Z,98092.44
2023-05-10T17:10:21.701Z,98087.19
2023-05-10T17:12:54.976Z,98092.16
2023-05-10T17:29:10.680Z,98099.00
2023-05-10T17:31:43.998Z,98107.25
2023-05-10T17:34:18.744Z,98110.06
2023-05-10T17:36:51.911Z,98108.50
2023-05-10T17:39:25.687Z,98113.34
2023-05-10T17:41:59.129Z,98118.03
2023-05-10T17:44:34.696Z,98126.63
2023-05-10T17:55:04.654Z,98124.84
2023-05-10T17:57:44.690Z,98123.59
2023-05-10T18:00:20.531Z,98118.59
2023-05-10T18:02:53.717Z,98129.50
2023-05-10T18:05:27.069Z,98125.16
2023-05-10T18:08:00.702Z,98129.59
2023-05-10T18:21:57.688Z,98147.22
2023-05-10T18:27:15.693Z,98151.88
2023-05-10T18:29:49.108Z,98158.84
2023-05-10T18:32:22.680Z,98154.97
2023-05-10T18:34:57.395Z,98159.03
2023-05-10T18:37:32.921Z,98162.25
2023-05-10T18:50:42.686Z,98169.25
2023-05-10T18:53:17.900Z,98171.63
2023-05-10T18:55:51.672Z,98176.38
2023-05-10T18:58:27.178Z,98184.13
2023-05-10T19:01:00.677Z,98180.09
2023-05-10T19:03:34.792Z,98179.78
2023-05-10T19:16:24.719Z,98189.59
2023-05-10T19:19:04.911Z,98184.81
2023-05-10T19:21:38.082Z,98196.13
2023-05-10T19:24:12.698Z,98191.38
2023-05-10T19:26:46.922Z,98182.78
2023-05-10T19:29:20.761Z,98189.34
2023-05-10T19:42:34.485Z,98195.56
2023-05-10T19:45:10.457Z,98195.91
2023-05-10T19:47:43.746Z,98195.22
2023-05-10T19:50:17.233Z,98196.56
2023-05-10T19:52:50.699Z,98208.53
2023-05-10T19:55:29.546Z,98203.66
2023-05-10T19:58:11.684Z,98203.97
2023-05-10T20:11:21.685Z,98214.88
2023-05-10T20:13:57.245Z,98206.09
2023-05-10T20:16:37.738Z,98219.78
2023-05-10T20:19:11.004Z,98210.97
2023-05-10T20:21:44.722Z,98213.94
2023-05-10T20:24:18.036Z,98213.59
2023-05-10T20:37:08.716Z,98218.59
2023-05-10T20:39:50.391Z,98217.22
2023-05-10T20:42:24.016Z,98217.56
2023-05-10T20:44:57.923Z,98216.03
2023-05-10T20:47:31.155Z,98224.44
2023-05-10T21:03:01.730Z,98210.69
2023-05-10T21:05:34.981Z,98218.09
2023-05-10T21:08:08.712Z,98210.16
2023-05-10T21:10:41.979Z,98209.63
2023-05-10T21:13:15.705Z,98210.81
2023-05-10T21:15:49.011Z,98205.75
2023-05-10T21:18:24.726Z,98205.03
2023-05-10T21:31:34.714Z,98205.31
2023-05-10T21:34:09.863Z,98210.00
2023-05-10T21:36:43.709Z,98198.53
2023-05-10T21:39:17.172Z,98206.78
2023-05-10T21:41:50.699Z,98204.06
2023-05-10T21:44:23.937Z,98203.38
2023-05-10T21:57:14.672Z,98216.78
2023-05-10T21:59:54.713Z,98206.00
2023-05-10T22:02:28.053Z,98208.00
2023-05-10T22:05:01.701Z,98217.09
2023-05-10T22:07:34.966Z,98215.38
2023-05-10T22:23:05.680Z,98218.34
2023-05-10T22:25:39.110Z,98216.09
2023-05-10T22:28:12.697Z,98222.66
2023-05-10T22:30:46.627Z,98212.19
2023-05-10T22:33:19.700Z,98217.88
2023-05-10T22:35:52.976Z,98225.97
2023-05-10T22:38:28.701Z,98226.13
2023-05-10T22:51:39.322Z,98224.50
2023-05-10T22:54:14.882Z,98222.81
2023-05-10T22:56:48.713Z,98226.34
2023-05-10T22:59:22.066Z,98231.03
2023-05-10T23:01:55.698Z,98228.50
2023-05-10T23:04:29.113Z,98230.50
2023-05-10T23:17:19.676Z,98235.44
2023-05-10T23:19:59.696Z,98237.44
2023-05-10T23:22:32.964Z,98244.81
2023-05-10T23:25:06.706Z,98237.72
2023-05-10T23:27:39.986Z,98239.72
2023-05-10T23:43:55.705Z,98242.94
2023-05-10T23:46:28.990Z,98250.31
2023-05-10T23:49:02.732Z,98251.16
2023-05-10T23:51:35.941Z,98252.00
2023-05-10T23:54:09.975Z,98246.94
2023-05-10T23:56:44.450Z,98247.22
2023-05-10T23:59:19.703Z,98242.81
